sensor_id;sensor_type;location;lat;lon;timestamp;P1;durP1;ratioP1;P2;durP2;ratioP2
33006;SDS011;19361;51.598;7.650;2024-03-02T00:03:49;9.15;;;3.05;;
33006;SDS011;19361;51.598;7.650;2024-03-02T00:08:50;4.65;;;3.28;;
33006;SDS011;19361;51.598;7.650;2024-03-02T00:13:52;6.28;;;3.33;;
33006;SDS011;19361;51.598;7.650;2024-03-02T00:18:54;4.00;;;2.72;;
33006;SDS011;19361;51.598;7.650;2024-03-02T00:23:54;3.95;;;2.47;;
33006;SDS011;19361;51.598;7.650;2024-03-02T00:28:55;3.45;;;2.47;;
33006;SDS011;19361;51.598;7.650;2024-03-02T00:33:59;3.47;;;2.40;;
33006;SDS011;19361;51.598;7.650;2024-03-02T00:39:03;2.78;;;2.17;;
33006;SDS011;19361;51.598;7.650;2024-03-02T00:44:07;3.45;;;2.58;;
33006;SDS011;19361;51.598;7.650;2024-03-02T00:49:18;3.50;;;2.20;;
33006;SDS011;19361;51.598;7.650;2024-03-02T00:54:23;2.95;;;2.35;;
33006;SDS011;19361;51.598;7.650;2024-03-02T00:59:28;2.38;;;2.17;;
33006;SDS011;19361;51.598;7.650;2024-03-02T01:04:31;3.15;;;2.30;;
33006;SDS011;19361;51.598;7.650;2024-03-02T01:09:32;4.28;;;2.00;;
33006;SDS011;19361;51.598;7.650;2024-03-02T01:14:33;3.17;;;2.05;;
33006;SDS011;19361;51.598;7.650;2024-03-02T01:19:33;3.38;;;2.35;;
33006;SDS011;19361;51.598;7.650;2024-03-02T01:24:34;2.72;;;2.13;;
33006;SDS011;19361;51.598;7.650;2024-03-02T01:29:35;3.45;;;1.90;;
33006;SDS011;19361;51.598;7.650;2024-03-02T01:34:35;2.42;;;1.92;;
33006;SDS011;19361;51.598;7.650;2024-03-02T01:39:36;2.80;;;1.98;;
33006;SDS011;19361;51.598;7.650;2024-03-02T01:44:37;2.42;;;2.00;;
33006;SDS011;19361;51.598;7.650;2024-03-02T01:49:37;2.17;;;1.98;;
33006;SDS011;19361;51.598;7.650;2024-03-02T01:54:38;2.33;;;1.98;;
33006;SDS011;19361;51.598;7.650;2024-03-02T01:59:39;2.10;;;1.90;;
33006;SDS011;19361;51.598;7.650;2024-03-02T02:04:40;2.20;;;2.00;;
33006;SDS011;19361;51.598;7.650;2024-03-02T02:09:41;2.63;;;2.30;;
33006;SDS011;19361;51.598;7.650;2024-03-02T02:14:48;2.63;;;2.00;;
33006;SDS011;19361;51.598;7.650;2024-03-02T02:19:52;2.20;;;1.90;;
33006;SDS011;19361;51.598;7.650;2024-03-02T02:24:53;3.58;;;1.77;;
33006;SDS011;19361;51.598;7.650;2024-03-02T02:29:54;5.50;;;2.00;;
33006;SDS011;19361;51.598;7.650;2024-03-02T02:34:56;1.70;;;1.50;;
33006;SDS011;19361;51.598;7.650;2024-03-02T02:39:56;1.98;;;1.73;;
33006;SDS011;19361;51.598;7.650;2024-03-02T02:44:57;1.65;;;1.33;;
33006;SDS011;19361;51.598;7.650;2024-03-02T02:49:58;2.10;;;1.77;;
33006;SDS011;19361;51.598;7.650;2024-03-02T02:54:59;3.05;;;1.52;;
33006;SDS011;19361;51.598;7.650;2024-03-02T02:59:59;3.70;;;1.65;;
33006;SDS011;19361;51.598;7.650;2024-03-02T03:05:11;2.90;;;1.80;;
33006;SDS011;19361;51.598;7.650;2024-03-02T03:10:14;2.03;;;1.60;;
33006;SDS011;19361;51.598;7.650;2024-03-02T03:15:14;1.70;;;1.58;;
33006;SDS011;19361;51.598;7.650;2024-03-02T03:20:16;1.63;;;1.40;;
33006;SDS011;19361;51.598;7.650;2024-03-02T03:25:17;2.63;;;1.67;;
33006;SDS011;19361;51.598;7.650;2024-03-02T03:30:18;3.92;;;1.70;;
33006;SDS011;19361;51.598;7.650;2024-03-02T03:35:18;6.43;;;1.65;;
33006;SDS011;19361;51.598;7.650;2024-03-02T03:40:19;1.60;;;1.40;;
33006;SDS011;19361;51.598;7.650;2024-03-02T03:45:20;1.63;;;1.30;;
33006;SDS011;19361;51.598;7.650;2024-03-02T03:50:21;2.42;;;1.63;;
33006;SDS011;19361;51.598;7.650;2024-03-02T03:55:21;2.55;;;1.75;;
33006;SDS011;19361;51.598;7.650;2024-03-02T04:00:22;3.20;;;1.70;;
33006;SDS011;19361;51.598;7.650;2024-03-02T04:05:23;1.92;;;1.70;;
33006;SDS011;19361;51.598;7.650;2024-03-02T04:10:23;2.47;;;1.75;;
33006;SDS011;19361;51.598;7.650;2024-03-02T04:15:24;2.20;;;1.73;;
33006;SDS011;19361;51.598;7.650;2024-03-02T04:20:25;1.92;;;1.67;;
33006;SDS011;19361;51.598;7.650;2024-03-02T04:25:25;4.40;;;1.65;;
33006;SDS011;19361;51.598;7.650;2024-03-02T04:30:26;1.80;;;1.70;;
33006;SDS011;19361;51.598;7.650;2024-03-02T04:35:27;2.65;;;1.83;;
33006;SDS011;19361;51.598;7.650;2024-03-02T04:40:28;1.63;;;1.50;;
33006;SDS011;19361;51.598;7.650;2024-03-02T04:45:29;2.55;;;1.58;;
33006;SDS011;19361;51.598;7.650;2024-03-02T04:50:30;2.22;;;1.70;;
33006;SDS011;19361;51.598;7.650;2024-03-02T04:55:30;3.75;;;1.50;;
33006;SDS011;19361;51.598;7.650;2024-03-02T05:00:51;2.72;;;1.40;;
33006;SDS011;19361;51.598;7.650;2024-03-02T05:05:52;2.65;;;1.60;;
33006;SDS011;19361;51.598;7.650;2024-03-02T05:10:52;4.10;;;2.15;;
33006;SDS011;19361;51.598;7.650;2024-03-02T05:15:53;2.67;;;2.20;;
33006;SDS011;19361;51.598;7.650;2024-03-02T05:20:54;2.30;;;1.70;;
33006;SDS011;19361;51.598;7.650;2024-03-02T05:25:54;4.90;;;2.25;;
33006;SDS011;19361;51.598;7.650;2024-03-02T05:30:55;2.90;;;2.28;;
33006;SDS011;19361;51.598;7.650;2024-03-02T05:35:56;4.05;;;2.40;;
33006;SDS011;19361;51.598;7.650;2024-03-02T05:40:56;3.30;;;2.92;;
33006;SDS011;19361;51.598;7.650;2024-03-02T05:45:57;3.85;;;2.60;;
33006;SDS011;19361;51.598;7.650;2024-03-02T05:50:58;3.17;;;2.50;;
33006;SDS011;19361;51.598;7.650;2024-03-02T05:55:58;4.65;;;2.28;;
33006;SDS011;19361;51.598;7.650;2024-03-02T06:00:59;3.17;;;2.45;;
33006;SDS011;19361;51.598;7.650;2024-03-02T06:06:00;4.10;;;2.60;;
33006;SDS011;19361;51.598;7.650;2024-03-02T06:11:01;6.95;;;4.75;;
33006;SDS011;19361;51.598;7.650;2024-03-02T06:16:02;9.45;;;6.35;;
33006;SDS011;19361;51.598;7.650;2024-03-02T06:21:03;14.68;;;6.45;;
33006;SDS011;19361;51.598;7.650;2024-03-02T06:26:04;17.63;;;8.35;;
33006;SDS011;19361;51.598;7.650;2024-03-02T06:31:04;11.30;;;6.82;;
33006;SDS011;19361;51.598;7.650;2024-03-02T06:36:05;8.05;;;5.43;;
33006;SDS011;19361;51.598;7.650;2024-03-02T06:41:09;5.03;;;3.95;;
33006;SDS011;19361;51.598;7.650;2024-03-02T06:46:10;6.30;;;3.78;;
33006;SDS011;19361;51.598;7.650;2024-03-02T06:51:14;6.22;;;4.38;;
33006;SDS011;19361;51.598;7.650;2024-03-02T06:56:15;5.35;;;3.17;;
33006;SDS011;19361;51.598;7.650;2024-03-02T07:01:16;5.15;;;3.42;;
33006;SDS011;19361;51.598;7.650;2024-03-02T07:06:17;4.22;;;3.25;;
33006;SDS011;19361;51.598;7.650;2024-03-02T07:11:17;5.60;;;3.20;;
33006;SDS011;19361;51.598;7.650;2024-03-02T07:16:18;3.85;;;3.30;;
33006;SDS011;19361;51.598;7.650;2024-03-02T07:21:27;8.23;;;5.88;;
33006;SDS011;19361;51.598;7.650;2024-03-02T07:26:28;5.57;;;4.13;;
33006;SDS011;19361;51.598;7.650;2024-03-02T07:31:31;6.93;;;4.00;;
33006;SDS011;19361;51.598;7.650;2024-03-02T07:36:31;6.82;;;4.30;;
33006;SDS011;19361;51.598;7.650;2024-03-02T07:41:32;9.38;;;4.57;;
33006;SDS011;19361;51.598;7.650;2024-03-02T07:46:33;4.18;;;3.78;;
33006;SDS011;19361;51.598;7.650;2024-03-02T07:51:33;6.97;;;3.92;;
33006;SDS011;19361;51.598;7.650;2024-03-02T07:56:34;7.40;;;3.97;;
33006;SDS011;19361;51.598;7.650;2024-03-02T08:01:35;6.53;;;4.03;;
33006;SDS011;19361;51.598;7.650;2024-03-02T08:06:37;7.65;;;3.45;;
33006;SDS011;19361;51.598;7.650;2024-03-02T08:11:37;5.82;;;3.47;;
33006;SDS011;19361;51.598;7.650;2024-03-02T08:16:38;5.00;;;3.63;;
33006;SDS011;19361;51.598;7.650;2024-03-02T08:21:40;5.30;;;3.45;;
33006;SDS011;19361;51.598;7.650;2024-03-02T08:26:40;4.97;;;3.60;;
33006;SDS011;19361;51.598;7.650;2024-03-02T08:31:41;3.88;;;3.30;;
33006;SDS011;19361;51.598;7.650;2024-03-02T08:36:42;4.47;;;3.63;;
33006;SDS011;19361;51.598;7.650;2024-03-02T08:41:46;5.65;;;3.63;;
33006;SDS011;19361;51.598;7.650;2024-03-02T08:46:47;3.95;;;3.17;;
33006;SDS011;19361;51.598;7.650;2024-03-02T08:51:48;4.28;;;3.13;;
33006;SDS011;19361;51.598;7.650;2024-03-02T08:56:54;5.60;;;3.30;;
33006;SDS011;19361;51.598;7.650;2024-03-02T09:01:55;7.65;;;3.25;;
33006;SDS011;19361;51.598;7.650;2024-03-02T09:06:55;2.90;;;2.53;;
33006;SDS011;19361;51.598;7.650;2024-03-02T09:11:56;6.88;;;3.85;;
33006;SDS011;19361;51.598;7.650;2024-03-02T09:16:57;5.18;;;3.17;;
33006;SDS011;19361;51.598;7.650;2024-03-02T09:21:58;3.22;;;2.90;;
33006;SDS011;19361;51.598;7.650;2024-03-02T09:26:59;3.28;;;2.67;;
33006;SDS011;19361;51.598;7.650;2024-03-02T09:32:00;4.15;;;3.00;;
33006;SDS011;19361;51.598;7.650;2024-03-02T09:37:00;4.78;;;3.17;;
33006;SDS011;19361;51.598;7.650;2024-03-02T09:42:02;4.03;;;2.95;;
33006;SDS011;19361;51.598;7.650;2024-03-02T09:47:04;5.22;;;3.97;;
33006;SDS011;19361;51.598;7.650;2024-03-02T09:52:07;3.80;;;2.55;;
33006;SDS011;19361;51.598;7.650;2024-03-02T09:57:07;3.88;;;2.70;;
33006;SDS011;19361;51.598;7.650;2024-03-02T10:02:09;2.78;;;2.33;;
33006;SDS011;19361;51.598;7.650;2024-03-02T10:07:17;4.22;;;2.50;;
33006;SDS011;19361;51.598;7.650;2024-03-02T10:12:19;2.38;;;2.17;;
33006;SDS011;19361;51.598;7.650;2024-03-02T10:17:19;4.20;;;2.20;;
33006;SDS011;19361;51.598;7.650;2024-03-02T10:22:22;3.15;;;2.35;;
33006;SDS011;19361;51.598;7.650;2024-03-02T10:27:25;2.97;;;1.98;;
33006;SDS011;19361;51.598;7.650;2024-03-02T10:32:27;2.28;;;1.90;;
33006;SDS011;19361;51.598;7.650;2024-03-02T10:37:28;2.15;;;1.77;;
33006;SDS011;19361;51.598;7.650;2024-03-02T10:42:29;1.70;;;1.58;;
33006;SDS011;19361;51.598;7.650;2024-03-02T10:47:31;1.58;;;1.48;;
33006;SDS011;19361;51.598;7.650;2024-03-02T10:52:34;2.28;;;1.50;;
33006;SDS011;19361;51.598;7.650;2024-03-02T10:57:40;3.28;;;1.30;;
33006;SDS011;19361;51.598;7.650;2024-03-02T11:02:46;1.42;;;1.10;;
33006;SDS011;19361;51.598;7.650;2024-03-02T11:08:01;1.35;;;1.23;;
33006;SDS011;19361;51.598;7.650;2024-03-02T11:13:11;1.38;;;1.27;;
33006;SDS011;19361;51.598;7.650;2024-03-02T11:18:12;1.25;;;1.15;;
33006;SDS011;19361;51.598;7.650;2024-03-02T11:23:15;1.20;;;1.10;;
33006;SDS011;19361;51.598;7.650;2024-03-02T11:28:15;0.95;;;0.90;;
33006;SDS011;19361;51.598;7.650;2024-03-02T11:33:35;1.13;;;1.02;;
33006;SDS011;19361;51.598;7.650;2024-03-02T11:38:36;4.32;;;1.10;;
33006;SDS011;19361;51.598;7.650;2024-03-02T11:43:37;2.95;;;1.10;;
33006;SDS011;19361;51.598;7.650;2024-03-02T11:48:41;1.65;;;1.30;;
33006;SDS011;19361;51.598;7.650;2024-03-02T11:53:42;2.00;;;1.50;;
33006;SDS011;19361;51.598;7.650;2024-03-02T11:58:44;1.20;;;1.10;;
33006;SDS011;19361;51.598;7.650;2024-03-02T12:03:45;0.98;;;0.90;;
33006;SDS011;19361;51.598;7.650;2024-03-02T12:08:46;1.35;;;1.00;;
33006;SDS011;19361;51.598;7.650;2024-03-02T12:13:52;1.00;;;0.90;;
33006;SDS011;19361;51.598;7.650;2024-03-02T12:18:57;1.88;;;1.13;;
33006;SDS011;19361;51.598;7.650;2024-03-02T12:23:58;4.25;;;1.48;;
33006;SDS011;19361;51.598;7.650;2024-03-02T12:28:59;1.65;;;1.13;;
33006;SDS011;19361;51.598;7.650;2024-03-02T12:34:00;1.48;;;1.02;;
33006;SDS011;19361;51.598;7.650;2024-03-02T12:39:03;0.85;;;0.70;;
33006;SDS011;19361;51.598;7.650;2024-03-02T12:44:04;2.15;;;1.38;;
33006;SDS011;19361;51.598;7.650;2024-03-02T12:49:09;0.95;;;0.90;;
33006;SDS011;19361;51.598;7.650;2024-03-02T12:54:12;0.82;;;0.82;;
33006;SDS011;19361;51.598;7.650;2024-03-02T12:59:19;1.30;;;1.00;;
33006;SDS011;19361;51.598;7.650;2024-03-02T13:04:25;2.75;;;1.88;;
33006;SDS011;19361;51.598;7.650;2024-03-02T13:09:28;1.75;;;1.30;;
33006;SDS011;19361;51.598;7.650;2024-03-02T13:14:31;1.35;;;1.25;;
33006;SDS011;19361;51.598;7.650;2024-03-02T13:19:35;1.13;;;0.85;;
33006;SDS011;19361;51.598;7.650;2024-03-02T13:24:36;1.30;;;1.20;;
33006;SDS011;19361;51.598;7.650;2024-03-02T13:29:37;2.78;;;1.38;;
33006;SDS011;19361;51.598;7.650;2024-03-02T13:34:38;1.10;;;1.00;;
33006;SDS011;19361;51.598;7.650;2024-03-02T13:39:38;1.42;;;1.00;;
33006;SDS011;19361;51.598;7.650;2024-03-02T13:44:45;1.23;;;1.13;;
33006;SDS011;19361;51.598;7.650;2024-03-02T13:49:48;1.15;;;1.10;;
33006;SDS011;19361;51.598;7.650;2024-03-02T13:54:49;1.63;;;0.90;;
33006;SDS011;19361;51.598;7.650;2024-03-02T13:59:52;0.93;;;0.90;;
33006;SDS011;19361;51.598;7.650;2024-03-02T14:04:53;1.13;;;1.08;;
33006;SDS011;19361;51.598;7.650;2024-03-02T14:09:54;2.28;;;2.08;;
33006;SDS011;19361;51.598;7.650;2024-03-02T14:14:55;1.20;;;1.10;;
33006;SDS011;19361;51.598;7.650;2024-03-02T14:19:58;1.02;;;1.02;;
33006;SDS011;19361;51.598;7.650;2024-03-02T14:24:59;1.52;;;1.30;;
33006;SDS011;19361;51.598;7.650;2024-03-02T14:29:59;1.30;;;1.20;;
33006;SDS011;19361;51.598;7.650;2024-03-02T14:35:00;1.83;;;1.30;;
33006;SDS011;19361;51.598;7.650;2024-03-02T14:40:02;1.70;;;1.60;;
33006;SDS011;19361;51.598;7.650;2024-03-02T14:45:06;1.10;;;1.10;;
33006;SDS011;19361;51.598;7.650;2024-03-02T14:50:07;1.05;;;0.95;;
33006;SDS011;19361;51.598;7.650;2024-03-02T14:55:09;2.65;;;1.10;;
33006;SDS011;19361;51.598;7.650;2024-03-02T15:00:10;2.33;;;1.15;;
33006;SDS011;19361;51.598;7.650;2024-03-02T15:05:11;1.55;;;1.05;;
33006;SDS011;19361;51.598;7.650;2024-03-02T15:10:12;1.35;;;1.25;;
33006;SDS011;19361;51.598;7.650;2024-03-02T15:15:12;2.53;;;1.20;;
33006;SDS011;19361;51.598;7.650;2024-03-02T15:20:13;1.67;;;1.15;;
33006;SDS011;19361;51.598;7.650;2024-03-02T15:25:14;1.35;;;1.25;;
33006;SDS011;19361;51.598;7.650;2024-03-02T15:30:16;2.45;;;1.75;;
33006;SDS011;19361;51.598;7.650;2024-03-02T15:35:17;1.85;;;1.20;;
33006;SDS011;19361;51.598;7.650;2024-03-02T15:40:17;1.73;;;1.30;;
33006;SDS011;19361;51.598;7.650;2024-03-02T15:45:18;2.47;;;1.30;;
33006;SDS011;19361;51.598;7.650;2024-03-02T15:50:19;2.00;;;1.50;;
33006;SDS011;19361;51.598;7.650;2024-03-02T15:55:19;1.65;;;1.50;;
33006;SDS011;19361;51.598;7.650;2024-03-02T16:00:20;1.10;;;1.10;;
33006;SDS011;19361;51.598;7.650;2024-03-02T16:05:21;1.55;;;1.30;;
33006;SDS011;19361;51.598;7.650;2024-03-02T16:10:22;2.58;;;1.40;;
33006;SDS011;19361;51.598;7.650;2024-03-02T16:15:24;1.60;;;1.10;;
33006;SDS011;19361;51.598;7.650;2024-03-02T16:20:26;1.60;;;1.50;;
33006;SDS011;19361;51.598;7.650;2024-03-02T16:25:27;2.35;;;1.70;;
33006;SDS011;19361;51.598;7.650;2024-03-02T16:30:29;2.33;;;2.13;;
33006;SDS011;19361;51.598;7.650;2024-03-02T16:35:30;2.90;;;1.70;;
33006;SDS011;19361;51.598;7.650;2024-03-02T16:40:30;1.50;;;1.40;;
33006;SDS011;19361;51.598;7.650;2024-03-02T16:45:31;3.42;;;1.95;;
33006;SDS011;19361;51.598;7.650;2024-03-02T16:50:32;1.52;;;1.42;;
33006;SDS011;19361;51.598;7.650;2024-03-02T16:55:33;1.45;;;1.35;;
33006;SDS011;19361;51.598;7.650;2024-03-02T17:00:33;6.55;;;1.40;;
33006;SDS011;19361;51.598;7.650;2024-03-02T17:05:34;1.48;;;1.38;;
33006;SDS011;19361;51.598;7.650;2024-03-02T17:10:35;2.08;;;1.98;;
33006;SDS011;19361;51.598;7.650;2024-03-02T17:15:37;3.28;;;2.30;;
33006;SDS011;19361;51.598;7.650;2024-03-02T17:20:38;2.38;;;2.17;;
33006;SDS011;19361;51.598;7.650;2024-03-02T17:25:38;4.05;;;2.40;;
33006;SDS011;19361;51.598;7.650;2024-03-02T17:30:39;3.25;;;2.95;;
33006;SDS011;19361;51.598;7.650;2024-03-02T17:35:40;3.00;;;2.70;;
33006;SDS011;19361;51.598;7.650;2024-03-02T17:40:41;3.15;;;2.60;;
33006;SDS011;19361;51.598;7.650;2024-03-02T17:45:43;3.42;;;2.85;;
33006;SDS011;19361;51.598;7.650;2024-03-02T17:50:43;3.72;;;3.30;;
33006;SDS011;19361;51.598;7.650;2024-03-02T17:55:44;6.47;;;4.20;;
33006;SDS011;19361;51.598;7.650;2024-03-02T18:00:45;12.93;;;7.63;;
33006;SDS011;19361;51.598;7.650;2024-03-02T18:05:46;9.13;;;6.13;;
33006;SDS011;19361;51.598;7.650;2024-03-02T18:10:46;4.93;;;3.15;;
33006;SDS011;19361;51.598;7.650;2024-03-02T18:15:47;3.88;;;2.58;;
33006;SDS011;19361;51.598;7.650;2024-03-02T18:20:48;3.10;;;2.65;;
33006;SDS011;19361;51.598;7.650;2024-03-02T18:25:49;5.65;;;4.10;;
33006;SDS011;19361;51.598;7.650;2024-03-02T18:30:50;3.70;;;3.17;;
33006;SDS011;19361;51.598;7.650;2024-03-02T18:35:51;4.70;;;3.38;;
33006;SDS011;19361;51.598;7.650;2024-03-02T18:40:51;3.67;;;2.58;;
33006;SDS011;19361;51.598;7.650;2024-03-02T18:45:52;4.45;;;2.65;;
33006;SDS011;19361;51.598;7.650;2024-03-02T18:50:55;4.80;;;2.72;;
33006;SDS011;19361;51.598;7.650;2024-03-02T18:55:56;3.20;;;2.50;;
33006;SDS011;19361;51.598;7.650;2024-03-02T19:00:56;4.18;;;3.10;;
33006;SDS011;19361;51.598;7.650;2024-03-02T19:05:58;2.65;;;2.45;;
33006;SDS011;19361;51.598;7.650;2024-03-02T19:10:59;2.80;;;2.47;;
33006;SDS011;19361;51.598;7.650;2024-03-02T19:16:00;4.50;;;3.03;;
33006;SDS011;19361;51.598;7.650;2024-03-02T19:21:00;3.92;;;3.00;;
33006;SDS011;19361;51.598;7.650;2024-03-02T19:26:01;3.30;;;3.00;;
33006;SDS011;19361;51.598;7.650;2024-03-02T19:31:03;3.22;;;2.83;;
33006;SDS011;19361;51.598;7.650;2024-03-02T19:36:04;3.05;;;2.55;;
33006;SDS011;19361;51.598;7.650;2024-03-02T19:41:05;3.05;;;2.50;;
33006;SDS011;19361;51.598;7.650;2024-03-02T19:46:06;4.43;;;2.60;;
33006;SDS011;19361;51.598;7.650;2024-03-02T19:51:06;4.07;;;2.75;;
33006;SDS011;19361;51.598;7.650;2024-03-02T19:56:15;4.22;;;3.08;;
33006;SDS011;19361;51.598;7.650;2024-03-02T20:01:18;2.92;;;2.50;;
33006;SDS011;19361;51.598;7.650;2024-03-02T20:06:18;2.45;;;2.25;;
33006;SDS011;19361;51.598;7.650;2024-03-02T20:11:19;2.63;;;2.30;;
33006;SDS011;19361;51.598;7.650;2024-03-02T20:16:20;4.50;;;2.40;;
33006;SDS011;19361;51.598;7.650;2024-03-02T20:21:21;2.15;;;2.03;;
33006;SDS011;19361;51.598;7.650;2024-03-02T20:26:21;4.53;;;3.38;;
33006;SDS011;19361;51.598;7.650;2024-03-02T20:31:22;8.93;;;5.03;;
33006;SDS011;19361;51.598;7.650;2024-03-02T20:36:23;10.45;;;4.50;;
33006;SDS011;19361;51.598;7.650;2024-03-02T20:41:23;8.85;;;4.82;;
33006;SDS011;19361;51.598;7.650;2024-03-02T20:46:24;4.15;;;3.50;;
33006;SDS011;19361;51.598;7.650;2024-03-02T20:51:25;5.45;;;2.97;;
33006;SDS011;19361;51.598;7.650;2024-03-02T20:56:29;3.60;;;3.30;;
33006;SDS011;19361;51.598;7.650;2024-03-02T21:01:29;3.65;;;3.13;;
33006;SDS011;19361;51.598;7.650;2024-03-02T21:06:31;4.72;;;3.35;;
33006;SDS011;19361;51.598;7.650;2024-03-02T21:11:31;3.40;;;3.10;;
33006;SDS011;19361;51.598;7.650;2024-03-02T21:16:32;3.60;;;3.28;;
33006;SDS011;19361;51.598;7.650;2024-03-02T21:21:33;3.83;;;3.40;;
33006;SDS011;19361;51.598;7.650;2024-03-02T21:26:38;4.35;;;3.70;;
33006;SDS011;19361;51.598;7.650;2024-03-02T21:31:40;3.83;;;3.28;;
33006;SDS011;19361;51.598;7.650;2024-03-02T21:36:41;5.55;;;4.05;;
33006;SDS011;19361;51.598;7.650;2024-03-02T21:41:42;4.53;;;3.90;;
33006;SDS011;19361;51.598;7.650;2024-03-02T21:46:44;4.70;;;4.20;;
33006;SDS011;19361;51.598;7.650;2024-03-02T21:51:45;4.70;;;4.30;;
33006;SDS011;19361;51.598;7.650;2024-03-02T21:56:46;7.18;;;4.75;;
33006;SDS011;19361;51.598;7.650;2024-03-02T22:01:47;5.15;;;4.40;;
33006;SDS011;19361;51.598;7.650;2024-03-02T22:06:48;4.97;;;4.43;;
33006;SDS011;19361;51.598;7.650;2024-03-02T22:11:49;4.90;;;4.40;;
33006;SDS011;19361;51.598;7.650;2024-03-02T22:16:49;5.05;;;4.60;;
33006;SDS011;19361;51.598;7.650;2024-03-02T22:21:50;6.72;;;5.63;;
33006;SDS011;19361;51.598;7.650;2024-03-02T22:26:51;5.72;;;5.00;;
33006;SDS011;19361;51.598;7.650;2024-03-02T22:31:52;5.60;;;5.00;;
33006;SDS011;19361;51.598;7.650;2024-03-02T22:36:53;5.72;;;5.13;;
33006;SDS011;19361;51.598;7.650;2024-03-02T22:41:53;6.88;;;5.28;;
33006;SDS011;19361;51.598;7.650;2024-03-02T22:46:55;6.35;;;5.47;;
33006;SDS011;19361;51.598;7.650;2024-03-02T22:51:55;6.07;;;5.47;;
33006;SDS011;19361;51.598;7.650;2024-03-02T22:56:56;6.18;;;5.57;;
33006;SDS011;19361;51.598;7.650;2024-03-02T23:01:57;8.93;;;5.68;;
33006;SDS011;19361;51.598;7.650;2024-03-02T23:06:58;7.78;;;5.90;;
33006;SDS011;19361;51.598;7.650;2024-03-02T23:11:58;6.18;;;4.93;;
33006;SDS011;19361;51.598;7.650;2024-03-02T23:16:59;7.32;;;5.90;;
33006;SDS011;19361;51.598;7.650;2024-03-02T23:21:59;6.22;;;5.63;;
33006;SDS011;19361;51.598;7.650;2024-03-02T23:27:00;7.47;;;5.60;;
33006;SDS011;19361;51.598;7.650;2024-03-02T23:32:01;7.22;;;5.97;;
33006;SDS011;19361;51.598;7.650;2024-03-02T23:37:02;8.98;;;6.45;;
33006;SDS011;19361;51.598;7.650;2024-03-02T23:42:02;6.20;;;5.60;;
33006;SDS011;19361;51.598;7.650;2024-03-02T23:47:03;7.10;;;6.00;;
33006;SDS011;19361;51.598;7.650;2024-03-02T23:52:05;7.88;;;6.00;;
33006;SDS011;19361;51.598;7.650;2024-03-02T23:57:06;8.32;;;5.78;;
